Terminal Aerodrome Forecast
Issued by NWS Greer, SC

Home | Current Version | Previous Version | Text Only | Print | Product List | Glossary On
Versions: 1 2 3 4 5 6 7 8 9 10 11 12 13 14 15 16 17 18 19 20
000
FTUS42 KGSP 301200 AAA
TAFGSP
TAF AMD
KGSP 301217Z 3012/0112 00000KT P6SM FEW006
      TEMPO 3012/3013 5SM BR
     FM301300 00000KT 3SM BR SCT006
     FM301400 VRB03KT P6SM FEW050
     FM010700 00000KT 4SM BR FEW250=

USA.gov is the U.S. government's official web portal to all federal, state and local government web resources and services.